Video & TV

Lees voor het posten de FAQ.

Als je iets zoekt op het forum kun je de zoekmachine raadplegen.

Onderwerp Replies Naam starter Datum
Monitor reparatie DC JACK kapot? Monitor reparatie DC JACK kapot? 1 2 laatste 44 MacShrike 31-08-2023 18:52:44
Samsung led tv 4 STEFF 31-08-2023 18:45:48
Sony KD-43EX8099 even witte led, geen errors, backlights? 18 Beeldbuisje 31-08-2023 18:45:16
SONY KDL-40BX400 knippert 2x 10 apkay 29-08-2023 21:13:51
Samsung UE43NU7090 - eerst een *knal* en nu dood 14 pa3fun 29-08-2023 21:00:30
Philips 43pus6101 8 peter2 28-08-2023 23:12:05
JVC DR-MV5 VHS+DVD SMPS voeding wil niet starten JVC DR-MV5 VHS+DVD SMPS voeding wil niet starten 1 2 laatste 38 ElektroNick 27-08-2023 18:55:03
Philips 55POS9002/12 OLED TV gesprongen zekeringen Philips 55POS9002/12 OLED TV gesprongen zekeringen 1 2 laatste 41 janjan22 27-08-2023 18:51:09
Philips 40PFL9606K Beeldfout 10 dijkmane 25-08-2023 19:11:25
sony betamax sl-c7e 2sc2335 gaan kapot sony betamax sl-c7e 2sc2335 gaan kapot 1 2 3 4 laatste 80 daltonagf 25-08-2023 19:09:30
Philips 32 pfl5306H/12 2 STEFF 24-08-2023 21:07:25
Akai video recorder vs-g705 11 leo53 23-08-2023 21:51:44
Optoma 146x beamer met defecte voeding 10 ArnoldB 23-08-2023 21:22:29
Lange HDMi verbinding. Lange HDMi verbinding. 1 2 laatste 28 buzzy 22-08-2023 21:51:56
Bose Wave Music System 2 Evarist 22-08-2023 15:48:04
philips RC283509/01 afstandsbediening 21 rguich 21-08-2023 13:32:42
Chromecast 1e generatie reset lukt niet 6 Bart64 20-08-2023 16:46:06
Loewe Individual Compose 52"; schema gezocht 17 pa3fun 20-08-2023 12:01:58
Serienrs in NVM zetten Philips smarttv lukt niet 14 Bart64 17-08-2023 19:21:18
Met spoed Gezocht stand alone Video on demand (via wifi) 15 High met Henk 16-08-2023 21:46:37
jvc hr dvs1 snel afspelen VHS perfect beeld normaal slecht beeld 19 daltonagf 16-08-2023 19:37:36
Led tv samsung UE46C6000 0 STEFF 16-08-2023 19:31:41
Voedingplaat Panasonic TX-P42VT30E Voedingplaat Panasonic TX-P42VT30E 1 2 laatste 28 Rruben 16-08-2023 19:07:09
Philips 55PUS6262/12 onderste rand beeld noet goed 4 daltonagf 16-08-2023 19:00:39
Ambilight Philips 40pfl7007 werkt niet meer 4 Bart64 16-08-2023 17:31:58
Grundig Davio 51 T 51-3101 TOP/1 geeft NTSC in zwart-wit weer 12 xX_B00bB0$$123_Xx 14-08-2023 19:00:58
LG TV model47 LB 670V 8 dokterhh 13-08-2023 19:12:15
Advies gevraagd over voeding Philips 55PDL8908S/12 Led TV Advies gevraagd over voeding Philips 55PDL8908S/12 Led TV 1 2 laatste 31 KiraMinoes 13-08-2023 18:27:36
2019 55" OLED met lijnen en erg veel dode pixels. 3 Beeldbuisje 09-08-2023 22:33:42
Power Supply Unit 715G4546 - Philips TV 42PFL6877K12 - wel +5VSB, geen hoofdvoeding 6 gandalf01 08-08-2023 22:27:08
Fantoombeeld Philips 55POS901F/12 12 CO Ber 08-08-2023 19:42:37
KD49XF9005 Sony 8 sprint 08-08-2023 18:44:30
humax iHDR-5400C opname bewerken 18 buzzy 08-08-2023 10:26:49
dual tv type DL-TQL 32r1-002 6 fred-loes 07-08-2023 18:55:29
OK ole 324 b-d4 maakt rare geluiden 24 Ronald45 07-08-2023 18:41:21
Philips 14PV284/01 23 Toontjelager 06-08-2023 21:00:24
DVDR 3380/31 werkt niet meer. 1 Camiel 06-08-2023 18:52:29
Aristona TV geometrie bijstellen Aristona TV geometrie bijstellen 1 2 laatste 34 xX_B00bB0$$123_Xx 06-08-2023 18:49:05
philips plasma tv 42fd9932/01s 3 wilfred johan 05-08-2023 06:59:55
Image retentie 9 maartenbakker 04-08-2023 11:29:18
MEDION lcd TV MD31104 BE A Start niet op 7 JimA 04-08-2023 11:27:12
Demonteren Samsung tv 4 Rely 02-08-2023 19:41:32
Voedingskaart ACER beamer 11 Mcau 01-08-2023 18:11:44
reparatie van voedingsprint BN44-00192B in Samsung TV 23 Ploeff 29-07-2023 12:16:42
Gesloten Van Ziggo Next Mini naar Humax kan dat? Van Ziggo Next Mini naar Humax kan dat? 1 2 3 laatste 50 Eus18 22-07-2023 23:18:25
Samsung Connectbox voeding 9 Hubie 22-07-2023 22:30:26
Philips 32PFL8404H/12 (Q548.1E LA) weer werkend gemaakt. 4 Driekske55 21-07-2023 18:42:32
Medion MD31197 NL-A afwisselend rood,groen,blauw 2 akkie2 20-07-2023 22:21:24
Philips 49PUS6482/12 TV Start niet op 2 Mickey84 20-07-2023 14:48:27
LG 55UH615V half scherm donker na vervanging LED module 12 Aldin 19-07-2023 17:27:37